sensor_id;sensor_type;location;lat;lon;timestamp;P1;durP1;ratioP1;P2;durP2;ratioP2
9052;SDS011;4561;47.450;7.516;2023-10-08T00:01:26;6.57;;;3.50;;
9052;SDS011;4561;47.450;7.516;2023-10-08T00:04:47;8.30;;;3.47;;
9052;SDS011;4561;47.450;7.516;2023-10-08T00:08:10;5.20;;;3.33;;
9052;SDS011;4561;47.450;7.516;2023-10-08T00:11:37;3.77;;;3.03;;
9052;SDS011;4561;47.450;7.516;2023-10-08T00:15:00;7.20;;;5.47;;
9052;SDS011;4561;47.450;7.516;2023-10-08T00:18:28;9.57;;;6.47;;
9052;SDS011;4561;47.450;7.516;2023-10-08T00:21:48;13.23;;;8.90;;
9052;SDS011;4561;47.450;7.516;2023-10-08T00:25:13;9.80;;;6.73;;
9052;SDS011;4561;47.450;7.516;2023-10-08T00:28:36;10.80;;;7.50;;
9052;SDS011;4561;47.450;7.516;2023-10-08T00:31:56;10.77;;;7.13;;
9052;SDS011;4561;47.450;7.516;2023-10-08T00:35:17;11.03;;;7.10;;
9052;SDS011;4561;47.450;7.516;2023-10-08T00:38:40;9.50;;;6.60;;
9052;SDS011;4561;47.450;7.516;2023-10-08T00:42:04;9.03;;;5.60;;
9052;SDS011;4561;47.450;7.516;2023-10-08T00:45:27;8.70;;;5.67;;
9052;SDS011;4561;47.450;7.516;2023-10-08T00:48:51;9.30;;;5.67;;
9052;SDS011;4561;47.450;7.516;2023-10-08T00:52:15;7.07;;;5.30;;
9052;SDS011;4561;47.450;7.516;2023-10-08T00:55:35;8.90;;;5.50;;
9052;SDS011;4561;47.450;7.516;2023-10-08T00:58:58;8.87;;;5.97;;
9052;SDS011;4561;47.450;7.516;2023-10-08T01:02:22;12.33;;;5.70;;
9052;SDS011;4561;47.450;7.516;2023-10-08T01:05:46;7.87;;;5.07;;
9052;SDS011;4561;47.450;7.516;2023-10-08T01:09:07;9.33;;;5.27;;
9052;SDS011;4561;47.450;7.516;2023-10-08T01:12:41;6.87;;;4.77;;
9052;SDS011;4561;47.450;7.516;2023-10-08T01:16:14;6.30;;;4.40;;
9052;SDS011;4561;47.450;7.516;2023-10-08T01:19:38;6.13;;;4.43;;
9052;SDS011;4561;47.450;7.516;2023-10-08T01:23:09;6.63;;;3.90;;
9052;SDS011;4561;47.450;7.516;2023-10-08T01:26:33;5.93;;;4.30;;
9052;SDS011;4561;47.450;7.516;2023-10-08T01:29:59;5.63;;;3.73;;
9052;SDS011;4561;47.450;7.516;2023-10-08T01:33:32;5.10;;;3.47;;
9052;SDS011;4561;47.450;7.516;2023-10-08T01:37:09;8.63;;;4.60;;
9052;SDS011;4561;47.450;7.516;2023-10-08T01:40:32;7.27;;;4.20;;
9052;SDS011;4561;47.450;7.516;2023-10-08T01:43:55;5.73;;;3.60;;
9052;SDS011;4561;47.450;7.516;2023-10-08T01:47:18;5.27;;;4.10;;
9052;SDS011;4561;47.450;7.516;2023-10-08T01:50:41;8.00;;;4.00;;
9052;SDS011;4561;47.450;7.516;2023-10-08T01:54:05;4.50;;;3.47;;
9052;SDS011;4561;47.450;7.516;2023-10-08T01:57:37;6.87;;;3.23;;
9052;SDS011;4561;47.450;7.516;2023-10-08T02:00:58;5.67;;;3.50;;
9052;SDS011;4561;47.450;7.516;2023-10-08T02:04:19;5.90;;;3.93;;
9052;SDS011;4561;47.450;7.516;2023-10-08T02:07:42;6.37;;;3.73;;
9052;SDS011;4561;47.450;7.516;2023-10-08T02:11:06;5.03;;;3.20;;
9052;SDS011;4561;47.450;7.516;2023-10-08T02:14:28;6.07;;;4.57;;
9052;SDS011;4561;47.450;7.516;2023-10-08T02:17:51;6.70;;;3.90;;
9052;SDS011;4561;47.450;7.516;2023-10-08T02:21:14;7.17;;;4.20;;
9052;SDS011;4561;47.450;7.516;2023-10-08T02:24:35;6.20;;;4.27;;
9052;SDS011;4561;47.450;7.516;2023-10-08T02:27:56;8.07;;;4.43;;
9052;SDS011;4561;47.450;7.516;2023-10-08T02:31:17;6.83;;;4.20;;
9052;SDS011;4561;47.450;7.516;2023-10-08T02:34:40;5.60;;;3.90;;
9052;SDS011;4561;47.450;7.516;2023-10-08T02:38:05;8.80;;;3.70;;
9052;SDS011;4561;47.450;7.516;2023-10-08T02:41:26;5.70;;;3.57;;
9052;SDS011;4561;47.450;7.516;2023-10-08T02:44:49;5.23;;;3.30;;
9052;SDS011;4561;47.450;7.516;2023-10-08T02:48:11;5.70;;;3.77;;
9052;SDS011;4561;47.450;7.516;2023-10-08T02:51:39;5.43;;;3.87;;
9052;SDS011;4561;47.450;7.516;2023-10-08T02:55:05;8.33;;;4.10;;
9052;SDS011;4561;47.450;7.516;2023-10-08T02:58:39;5.43;;;3.43;;
9052;SDS011;4561;47.450;7.516;2023-10-08T03:02:00;3.93;;;3.13;;
9052;SDS011;4561;47.450;7.516;2023-10-08T03:05:23;5.57;;;3.60;;
9052;SDS011;4561;47.450;7.516;2023-10-08T03:08:50;5.47;;;3.33;;
9052;SDS011;4561;47.450;7.516;2023-10-08T03:12:11;4.90;;;3.20;;
9052;SDS011;4561;47.450;7.516;2023-10-08T03:15:31;6.97;;;3.27;;
9052;SDS011;4561;47.450;7.516;2023-10-08T03:19:06;3.80;;;3.13;;
9052;SDS011;4561;47.450;7.516;2023-10-08T03:22:28;6.07;;;3.60;;
9052;SDS011;4561;47.450;7.516;2023-10-08T03:25:54;7.30;;;3.30;;
9052;SDS011;4561;47.450;7.516;2023-10-08T03:29:30;5.00;;;3.47;;
9052;SDS011;4561;47.450;7.516;2023-10-08T03:32:51;7.90;;;3.63;;
9052;SDS011;4561;47.450;7.516;2023-10-08T03:36:15;6.03;;;3.83;;
9052;SDS011;4561;47.450;7.516;2023-10-08T03:39:42;6.13;;;3.20;;
9052;SDS011;4561;47.450;7.516;2023-10-08T03:43:11;4.93;;;3.20;;
9052;SDS011;4561;47.450;7.516;2023-10-08T03:46:44;6.73;;;4.13;;
9052;SDS011;4561;47.450;7.516;2023-10-08T03:50:07;5.03;;;3.50;;
9052;SDS011;4561;47.450;7.516;2023-10-08T03:53:29;6.20;;;3.37;;
9052;SDS011;4561;47.450;7.516;2023-10-08T03:56:53;5.07;;;3.33;;
9052;SDS011;4561;47.450;7.516;2023-10-08T04:00:14;5.57;;;3.10;;
9052;SDS011;4561;47.450;7.516;2023-10-08T04:03:38;5.90;;;3.30;;
9052;SDS011;4561;47.450;7.516;2023-10-08T04:07:10;3.73;;;2.80;;
9052;SDS011;4561;47.450;7.516;2023-10-08T04:11:04;5.23;;;3.47;;
9052;SDS011;4561;47.450;7.516;2023-10-08T04:14:28;6.83;;;5.10;;
9052;SDS011;4561;47.450;7.516;2023-10-08T04:17:50;4.70;;;3.83;;
9052;SDS011;4561;47.450;7.516;2023-10-08T04:21:13;5.17;;;3.50;;
9052;SDS011;4561;47.450;7.516;2023-10-08T04:24:33;6.10;;;3.20;;
9052;SDS011;4561;47.450;7.516;2023-10-08T04:27:57;4.70;;;3.10;;
9052;SDS011;4561;47.450;7.516;2023-10-08T04:31:21;5.07;;;3.87;;
9052;SDS011;4561;47.450;7.516;2023-10-08T04:34:48;4.37;;;3.30;;
9052;SDS011;4561;47.450;7.516;2023-10-08T04:38:09;5.00;;;3.30;;
9052;SDS011;4561;47.450;7.516;2023-10-08T04:41:33;7.23;;;3.30;;
9052;SDS011;4561;47.450;7.516;2023-10-08T04:44:59;4.47;;;3.13;;
9052;SDS011;4561;47.450;7.516;2023-10-08T04:48:23;4.97;;;3.40;;
9052;SDS011;4561;47.450;7.516;2023-10-08T04:51:44;4.80;;;3.27;;
9052;SDS011;4561;47.450;7.516;2023-10-08T04:55:06;4.00;;;2.77;;
9052;SDS011;4561;47.450;7.516;2023-10-08T04:58:35;4.83;;;2.90;;
9052;SDS011;4561;47.450;7.516;2023-10-08T05:02:00;4.90;;;2.83;;
9052;SDS011;4561;47.450;7.516;2023-10-08T05:05:40;6.80;;;3.40;;
9052;SDS011;4561;47.450;7.516;2023-10-08T05:09:27;7.33;;;3.33;;
9052;SDS011;4561;47.450;7.516;2023-10-08T05:13:14;4.70;;;3.30;;
9052;SDS011;4561;47.450;7.516;2023-10-08T05:16:36;4.07;;;3.00;;
9052;SDS011;4561;47.450;7.516;2023-10-08T05:20:06;4.17;;;2.87;;
9052;SDS011;4561;47.450;7.516;2023-10-08T05:23:26;8.20;;;3.03;;
9052;SDS011;4561;47.450;7.516;2023-10-08T05:26:49;5.87;;;2.83;;
9052;SDS011;4561;47.450;7.516;2023-10-08T05:30:20;5.20;;;3.23;;
9052;SDS011;4561;47.450;7.516;2023-10-08T05:34:13;6.90;;;3.30;;
9052;SDS011;4561;47.450;7.516;2023-10-08T05:37:37;5.93;;;3.30;;
9052;SDS011;4561;47.450;7.516;2023-10-08T05:41:02;7.17;;;3.60;;
9052;SDS011;4561;47.450;7.516;2023-10-08T05:44:22;5.23;;;3.53;;
9052;SDS011;4561;47.450;7.516;2023-10-08T05:47:43;7.17;;;3.87;;
9052;SDS011;4561;47.450;7.516;2023-10-08T05:51:23;5.63;;;3.63;;
9052;SDS011;4561;47.450;7.516;2023-10-08T05:54:54;5.87;;;3.60;;
9052;SDS011;4561;47.450;7.516;2023-10-08T05:58:32;5.27;;;3.37;;
9052;SDS011;4561;47.450;7.516;2023-10-08T06:02:06;5.73;;;3.27;;
9052;SDS011;4561;47.450;7.516;2023-10-08T06:05:46;6.57;;;3.37;;
9052;SDS011;4561;47.450;7.516;2023-10-08T06:09:22;4.87;;;3.33;;
9052;SDS011;4561;47.450;7.516;2023-10-08T06:13:04;8.50;;;3.47;;
9052;SDS011;4561;47.450;7.516;2023-10-08T06:16:52;6.03;;;3.07;;
9052;SDS011;4561;47.450;7.516;2023-10-08T06:20:34;6.33;;;3.10;;
9052;SDS011;4561;47.450;7.516;2023-10-08T06:24:01;7.30;;;2.87;;
9052;SDS011;4561;47.450;7.516;2023-10-08T06:27:28;7.27;;;3.47;;
9052;SDS011;4561;47.450;7.516;2023-10-08T06:30:53;5.53;;;3.47;;
9052;SDS011;4561;47.450;7.516;2023-10-08T06:34:15;4.03;;;2.80;;
9052;SDS011;4561;47.450;7.516;2023-10-08T06:37:36;4.37;;;3.10;;
9052;SDS011;4561;47.450;7.516;2023-10-08T06:40:57;4.70;;;3.10;;
9052;SDS011;4561;47.450;7.516;2023-10-08T06:44:20;9.53;;;3.50;;
9052;SDS011;4561;47.450;7.516;2023-10-08T06:47:44;4.17;;;3.23;;
9052;SDS011;4561;47.450;7.516;2023-10-08T06:51:06;4.93;;;3.53;;
9052;SDS011;4561;47.450;7.516;2023-10-08T06:54:33;5.83;;;4.07;;
9052;SDS011;4561;47.450;7.516;2023-10-08T06:57:55;4.03;;;3.10;;
9052;SDS011;4561;47.450;7.516;2023-10-08T07:01:21;6.20;;;3.80;;
9052;SDS011;4561;47.450;7.516;2023-10-08T07:04:44;3.97;;;3.37;;
9052;SDS011;4561;47.450;7.516;2023-10-08T07:08:10;4.83;;;3.50;;
9052;SDS011;4561;47.450;7.516;2023-10-08T07:11:33;8.60;;;5.00;;
9052;SDS011;4561;47.450;7.516;2023-10-08T07:14:59;5.17;;;3.30;;
9052;SDS011;4561;47.450;7.516;2023-10-08T07:18:21;5.87;;;3.83;;
9052;SDS011;4561;47.450;7.516;2023-10-08T07:21:45;4.63;;;3.33;;
9052;SDS011;4561;47.450;7.516;2023-10-08T07:25:06;4.03;;;3.10;;
9052;SDS011;4561;47.450;7.516;2023-10-08T07:28:28;5.03;;;3.13;;
9052;SDS011;4561;47.450;7.516;2023-10-08T07:31:53;5.37;;;3.60;;
9052;SDS011;4561;47.450;7.516;2023-10-08T07:35:14;5.53;;;3.90;;
9052;SDS011;4561;47.450;7.516;2023-10-08T07:38:43;6.13;;;3.80;;
9052;SDS011;4561;47.450;7.516;2023-10-08T07:42:04;7.27;;;4.03;;
9052;SDS011;4561;47.450;7.516;2023-10-08T07:45:25;5.60;;;3.47;;
9052;SDS011;4561;47.450;7.516;2023-10-08T07:48:48;6.37;;;3.23;;
9052;SDS011;4561;47.450;7.516;2023-10-08T07:52:10;6.43;;;4.10;;
9052;SDS011;4561;47.450;7.516;2023-10-08T07:55:35;4.67;;;3.27;;
9052;SDS011;4561;47.450;7.516;2023-10-08T07:58:55;6.00;;;4.07;;
9052;SDS011;4561;47.450;7.516;2023-10-08T08:02:16;5.00;;;4.03;;
9052;SDS011;4561;47.450;7.516;2023-10-08T08:05:43;4.40;;;3.40;;
9052;SDS011;4561;47.450;7.516;2023-10-08T08:09:04;8.43;;;3.97;;
9052;SDS011;4561;47.450;7.516;2023-10-08T08:12:39;6.18;;;3.55;;
9052;SDS011;4561;47.450;7.516;2023-10-08T08:16:00;4.22;;;3.55;;
9052;SDS011;4561;47.450;7.516;2023-10-08T08:19:29;5.00;;;3.67;;
9052;SDS011;4561;47.450;7.516;2023-10-08T08:22:51;5.10;;;3.67;;
9052;SDS011;4561;47.450;7.516;2023-10-08T08:26:23;6.63;;;4.00;;
9052;SDS011;4561;47.450;7.516;2023-10-08T08:29:53;4.72;;;3.53;;
9052;SDS011;4561;47.450;7.516;2023-10-08T08:33:16;6.55;;;3.75;;
9052;SDS011;4561;47.450;7.516;2023-10-08T08:36:42;7.72;;;4.40;;
9052;SDS011;4561;47.450;7.516;2023-10-08T08:40:06;4.95;;;3.60;;
9052;SDS011;4561;47.450;7.516;2023-10-08T08:43:51;4.28;;;3.78;;
9052;SDS011;4561;47.450;7.516;2023-10-08T08:47:18;5.55;;;3.63;;
9052;SDS011;4561;47.450;7.516;2023-10-08T08:50:40;5.28;;;3.60;;
9052;SDS011;4561;47.450;7.516;2023-10-08T08:54:04;4.85;;;3.70;;
9052;SDS011;4561;47.450;7.516;2023-10-08T08:57:32;5.10;;;3.83;;
9052;SDS011;4561;47.450;7.516;2023-10-08T09:00:53;6.82;;;3.80;;
9052;SDS011;4561;47.450;7.516;2023-10-08T09:04:18;6.53;;;4.07;;
9052;SDS011;4561;47.450;7.516;2023-10-08T09:08:02;4.70;;;3.25;;
9052;SDS011;4561;47.450;7.516;2023-10-08T09:11:24;5.03;;;3.80;;
9052;SDS011;4561;47.450;7.516;2023-10-08T09:14:46;5.70;;;3.72;;
9052;SDS011;4561;47.450;7.516;2023-10-08T09:18:06;7.47;;;3.58;;
9052;SDS011;4561;47.450;7.516;2023-10-08T09:21:29;6.80;;;3.85;;
9052;SDS011;4561;47.450;7.516;2023-10-08T09:24:50;7.45;;;4.03;;
9052;SDS011;4561;47.450;7.516;2023-10-08T09:28:15;6.47;;;3.53;;
9052;SDS011;4561;47.450;7.516;2023-10-08T09:31:36;7.10;;;3.95;;
9052;SDS011;4561;47.450;7.516;2023-10-08T09:34:56;4.93;;;3.40;;
9052;SDS011;4561;47.450;7.516;2023-10-08T09:38:18;8.07;;;3.42;;
9052;SDS011;4561;47.450;7.516;2023-10-08T09:41:43;6.95;;;3.40;;
9052;SDS011;4561;47.450;7.516;2023-10-08T09:45:07;5.60;;;3.63;;
9052;SDS011;4561;47.450;7.516;2023-10-08T09:48:28;6.57;;;3.90;;
9052;SDS011;4561;47.450;7.516;2023-10-08T09:51:55;8.10;;;4.07;;
9052;SDS011;4561;47.450;7.516;2023-10-08T09:55:18;7.10;;;4.30;;
9052;SDS011;4561;47.450;7.516;2023-10-08T09:58:40;5.80;;;3.75;;
9052;SDS011;4561;47.450;7.516;2023-10-08T10:02:01;6.78;;;3.80;;
9052;SDS011;4561;47.450;7.516;2023-10-08T10:05:23;8.98;;;3.70;;
9052;SDS011;4561;47.450;7.516;2023-10-08T10:08:47;6.35;;;3.80;;
9052;SDS011;4561;47.450;7.516;2023-10-08T10:12:08;6.57;;;3.78;;
9052;SDS011;4561;47.450;7.516;2023-10-08T10:15:32;6.68;;;3.97;;
9052;SDS011;4561;47.450;7.516;2023-10-08T10:18:55;5.97;;;4.30;;
9052;SDS011;4561;47.450;7.516;2023-10-08T10:22:29;6.70;;;3.95;;
9052;SDS011;4561;47.450;7.516;2023-10-08T10:25:56;10.52;;;4.20;;
9052;SDS011;4561;47.450;7.516;2023-10-08T10:29:19;7.28;;;3.83;;
9052;SDS011;4561;47.450;7.516;2023-10-08T10:32:46;6.57;;;4.13;;
9052;SDS011;4561;47.450;7.516;2023-10-08T10:36:06;8.85;;;4.03;;
9052;SDS011;4561;47.450;7.516;2023-10-08T10:39:33;7.72;;;3.83;;
9052;SDS011;4561;47.450;7.516;2023-10-08T10:43:00;5.85;;;3.53;;
9052;SDS011;4561;47.450;7.516;2023-10-08T10:46:21;8.55;;;4.40;;
9052;SDS011;4561;47.450;7.516;2023-10-08T10:49:51;8.23;;;4.32;;
9052;SDS011;4561;47.450;7.516;2023-10-08T10:53:12;7.15;;;4.15;;
9052;SDS011;4561;47.450;7.516;2023-10-08T10:56:33;8.02;;;3.25;;
9052;SDS011;4561;47.450;7.516;2023-10-08T11:00:02;8.38;;;3.95;;
9052;SDS011;4561;47.450;7.516;2023-10-08T11:03:38;7.97;;;3.88;;
9052;SDS011;4561;47.450;7.516;2023-10-08T11:06:59;10.23;;;4.43;;
9052;SDS011;4561;47.450;7.516;2023-10-08T11:10:26;11.30;;;4.53;;
9052;SDS011;4561;47.450;7.516;2023-10-08T11:13:48;9.50;;;4.28;;
9052;SDS011;4561;47.450;7.516;2023-10-08T11:17:17;11.25;;;4.53;;
9052;SDS011;4561;47.450;7.516;2023-10-08T11:20:42;8.90;;;4.63;;
9052;SDS011;4561;47.450;7.516;2023-10-08T11:24:14;17.50;;;4.75;;
9052;SDS011;4561;47.450;7.516;2023-10-08T11:27:45;15.95;;;4.50;;
9052;SDS011;4561;47.450;7.516;2023-10-08T11:31:05;12.85;;;4.95;;
9052;SDS011;4561;47.450;7.516;2023-10-08T11:34:32;14.88;;;5.03;;
9052;SDS011;4561;47.450;7.516;2023-10-08T11:37:59;15.73;;;4.97;;
9052;SDS011;4561;47.450;7.516;2023-10-08T11:41:22;13.75;;;4.93;;
9052;SDS011;4561;47.450;7.516;2023-10-08T11:44:43;15.95;;;5.50;;
9052;SDS011;4561;47.450;7.516;2023-10-08T11:48:04;12.02;;;4.38;;
9052;SDS011;4561;47.450;7.516;2023-10-08T11:51:32;16.92;;;5.13;;
9052;SDS011;4561;47.450;7.516;2023-10-08T11:55:00;17.80;;;5.15;;
9052;SDS011;4561;47.450;7.516;2023-10-08T11:58:23;19.42;;;6.05;;
9052;SDS011;4561;47.450;7.516;2023-10-08T12:01:57;14.93;;;5.50;;
9052;SDS011;4561;47.450;7.516;2023-10-08T12:05:17;13.85;;;5.20;;
9052;SDS011;4561;47.450;7.516;2023-10-08T12:08:43;18.10;;;5.35;;
9052;SDS011;4561;47.450;7.516;2023-10-08T12:12:07;21.73;;;5.88;;
9052;SDS011;4561;47.450;7.516;2023-10-08T12:15:31;19.80;;;5.90;;
9052;SDS011;4561;47.450;7.516;2023-10-08T12:18:58;19.42;;;5.50;;
9052;SDS011;4561;47.450;7.516;2023-10-08T12:22:19;16.40;;;5.55;;
9052;SDS011;4561;47.450;7.516;2023-10-08T12:25:39;22.17;;;5.40;;
9052;SDS011;4561;47.450;7.516;2023-10-08T12:29:11;23.48;;;5.95;;
9052;SDS011;4561;47.450;7.516;2023-10-08T12:32:34;17.95;;;5.10;;
9052;SDS011;4561;47.450;7.516;2023-10-08T12:36:02;19.42;;;5.38;;
9052;SDS011;4561;47.450;7.516;2023-10-08T12:39:30;19.27;;;5.43;;
9052;SDS011;4561;47.450;7.516;2023-10-08T12:42:51;26.40;;;6.32;;
9052;SDS011;4561;47.450;7.516;2023-10-08T12:46:14;18.88;;;5.05;;
9052;SDS011;4561;47.450;7.516;2023-10-08T12:49:53;16.05;;;5.57;;
9052;SDS011;4561;47.450;7.516;2023-10-08T12:53:17;21.15;;;5.40;;
9052;SDS011;4561;47.450;7.516;2023-10-08T12:56:37;14.18;;;4.80;;
9052;SDS011;4561;47.450;7.516;2023-10-08T13:00:05;14.25;;;4.80;;
9052;SDS011;4561;47.450;7.516;2023-10-08T13:03:28;14.95;;;4.57;;
9052;SDS011;4561;47.450;7.516;2023-10-08T13:06:55;17.88;;;5.15;;
9052;SDS011;4561;47.450;7.516;2023-10-08T13:10:23;17.35;;;4.78;;
9052;SDS011;4561;47.450;7.516;2023-10-08T13:13:46;14.20;;;4.88;;
9052;SDS011;4561;47.450;7.516;2023-10-08T13:17:07;13.95;;;4.93;;
9052;SDS011;4561;47.450;7.516;2023-10-08T13:20:33;14.98;;;4.85;;
9052;SDS011;4561;47.450;7.516;2023-10-08T13:23:54;17.05;;;5.13;;
9052;SDS011;4561;47.450;7.516;2023-10-08T13:27:19;18.13;;;4.65;;
9052;SDS011;4561;47.450;7.516;2023-10-08T13:30:39;18.30;;;5.75;;
9052;SDS011;4561;47.450;7.516;2023-10-08T13:33:59;14.98;;;4.95;;
9052;SDS011;4561;47.450;7.516;2023-10-08T13:37:23;18.45;;;4.97;;
9052;SDS011;4561;47.450;7.516;2023-10-08T13:40:51;20.63;;;5.65;;
9052;SDS011;4561;47.450;7.516;2023-10-08T13:44:24;23.40;;;12.07;;
9052;SDS011;4561;47.450;7.516;2023-10-08T13:47:52;13.35;;;5.63;;
9052;SDS011;4561;47.450;7.516;2023-10-08T13:51:12;15.65;;;5.15;;
9052;SDS011;4561;47.450;7.516;2023-10-08T13:54:40;15.85;;;5.18;;
9052;SDS011;4561;47.450;7.516;2023-10-08T13:58:07;18.52;;;4.70;;
9052;SDS011;4561;47.450;7.516;2023-10-08T14:01:28;17.02;;;5.32;;
9052;SDS011;4561;47.450;7.516;2023-10-08T14:04:49;17.92;;;4.95;;
9052;SDS011;4561;47.450;7.516;2023-10-08T14:08:10;13.93;;;4.75;;
9052;SDS011;4561;47.450;7.516;2023-10-08T14:11:35;19.98;;;4.72;;
9052;SDS011;4561;47.450;7.516;2023-10-08T14:14:56;15.88;;;4.57;;
9052;SDS011;4561;47.450;7.516;2023-10-08T14:18:16;14.43;;;4.75;;
9052;SDS011;4561;47.450;7.516;2023-10-08T14:21:37;10.98;;;4.45;;
9052;SDS011;4561;47.450;7.516;2023-10-08T14:25:10;14.15;;;4.82;;
9052;SDS011;4561;47.450;7.516;2023-10-08T14:28:37;17.45;;;4.88;;
9052;SDS011;4561;47.450;7.516;2023-10-08T14:32:02;15.77;;;4.75;;
9052;SDS011;4561;47.450;7.516;2023-10-08T14:35:28;22.45;;;4.63;;
9052;SDS011;4561;47.450;7.516;2023-10-08T14:39:08;11.07;;;4.30;;
9052;SDS011;4561;47.450;7.516;2023-10-08T14:42:47;22.33;;;5.57;;
9052;SDS011;4561;47.450;7.516;2023-10-08T14:46:19;14.70;;;4.72;;
9052;SDS011;4561;47.450;7.516;2023-10-08T14:49:40;17.80;;;4.82;;
9052;SDS011;4561;47.450;7.516;2023-10-08T14:53:02;13.60;;;5.05;;
9052;SDS011;4561;47.450;7.516;2023-10-08T14:56:25;20.05;;;4.78;;
9052;SDS011;4561;47.450;7.516;2023-10-08T14:59:48;12.73;;;5.18;;
9052;SDS011;4561;47.450;7.516;2023-10-08T15:03:11;15.57;;;5.18;;
9052;SDS011;4561;47.450;7.516;2023-10-08T15:06:34;14.85;;;4.43;;
9052;SDS011;4561;47.450;7.516;2023-10-08T15:09:57;15.82;;;4.40;;
9052;SDS011;4561;47.450;7.516;2023-10-08T15:13:20;12.80;;;4.47;;
9052;SDS011;4561;47.450;7.516;2023-10-08T15:16:41;15.00;;;5.07;;
9052;SDS011;4561;47.450;7.516;2023-10-08T15:20:04;18.65;;;4.45;;
9052;SDS011;4561;47.450;7.516;2023-10-08T15:23:26;13.10;;;4.80;;
9052;SDS011;4561;47.450;7.516;2023-10-08T15:26:47;14.85;;;4.80;;
9052;SDS011;4561;47.450;7.516;2023-10-08T15:30:09;14.57;;;4.22;;
9052;SDS011;4561;47.450;7.516;2023-10-08T15:33:35;11.85;;;4.32;;
9052;SDS011;4561;47.450;7.516;2023-10-08T15:36:56;15.77;;;4.63;;
9052;SDS011;4561;47.450;7.516;2023-10-08T15:40:19;15.80;;;4.82;;
9052;SDS011;4561;47.450;7.516;2023-10-08T15:43:40;11.02;;;5.18;;
9052;SDS011;4561;47.450;7.516;2023-10-08T15:47:04;13.18;;;5.32;;
9052;SDS011;4561;47.450;7.516;2023-10-08T15:50:26;16.63;;;4.65;;
9052;SDS011;4561;47.450;7.516;2023-10-08T15:53:47;16.25;;;4.72;;
9052;SDS011;4561;47.450;7.516;2023-10-08T15:57:07;14.88;;;4.97;;
9052;SDS011;4561;47.450;7.516;2023-10-08T16:00:28;17.33;;;4.50;;
9052;SDS011;4561;47.450;7.516;2023-10-08T16:03:48;12.10;;;4.95;;
9052;SDS011;4561;47.450;7.516;2023-10-08T16:07:10;15.40;;;4.75;;
9052;SDS011;4561;47.450;7.516;2023-10-08T16:10:33;13.73;;;4.70;;
9052;SDS011;4561;47.450;7.516;2023-10-08T16:13:54;23.10;;;4.95;;
9052;SDS011;4561;47.450;7.516;2023-10-08T16:17:14;12.55;;;4.88;;
9052;SDS011;4561;47.450;7.516;2023-10-08T16:20:36;15.77;;;5.03;;
9052;SDS011;4561;47.450;7.516;2023-10-08T16:23:56;11.57;;;4.50;;
9052;SDS011;4561;47.450;7.516;2023-10-08T16:27:18;16.33;;;5.47;;
9052;SDS011;4561;47.450;7.516;2023-10-08T16:30:39;13.43;;;4.60;;
9052;SDS011;4561;47.450;7.516;2023-10-08T16:34:02;20.48;;;5.00;;
9052;SDS011;4561;47.450;7.516;2023-10-08T16:37:22;15.07;;;4.38;;
9052;SDS011;4561;47.450;7.516;2023-10-08T16:40:43;16.38;;;5.22;;
9052;SDS011;4561;47.450;7.516;2023-10-08T16:44:06;12.82;;;4.25;;
9052;SDS011;4561;47.450;7.516;2023-10-08T16:47:26;11.93;;;4.25;;
9052;SDS011;4561;47.450;7.516;2023-10-08T16:50:49;19.42;;;5.07;;
9052;SDS011;4561;47.450;7.516;2023-10-08T16:54:10;15.23;;;3.75;;
9052;SDS011;4561;47.450;7.516;2023-10-08T16:57:37;16.38;;;4.43;;
9052;SDS011;4561;47.450;7.516;2023-10-08T17:00:57;20.88;;;4.35;;
9052;SDS011;4561;47.450;7.516;2023-10-08T17:04:18;16.75;;;4.35;;
9052;SDS011;4561;47.450;7.516;2023-10-08T17:07:38;18.48;;;4.30;;
9052;SDS011;4561;47.450;7.516;2023-10-08T17:10:58;21.45;;;5.13;;
9052;SDS011;4561;47.450;7.516;2023-10-08T17:14:19;16.40;;;3.92;;
9052;SDS011;4561;47.450;7.516;2023-10-08T17:17:39;18.27;;;4.55;;
9052;SDS011;4561;47.450;7.516;2023-10-08T17:21:00;19.77;;;4.63;;
9052;SDS011;4561;47.450;7.516;2023-10-08T17:24:21;22.73;;;4.22;;
9052;SDS011;4561;47.450;7.516;2023-10-08T17:27:41;18.50;;;5.05;;
9052;SDS011;4561;47.450;7.516;2023-10-08T17:31:04;19.75;;;4.47;;
9052;SDS011;4561;47.450;7.516;2023-10-08T17:34:25;18.67;;;4.53;;
9052;SDS011;4561;47.450;7.516;2023-10-08T17:37:46;20.83;;;4.88;;
9052;SDS011;4561;47.450;7.516;2023-10-08T17:41:09;19.38;;;4.63;;
9052;SDS011;4561;47.450;7.516;2023-10-08T17:44:29;12.53;;;4.47;;
9052;SDS011;4561;47.450;7.516;2023-10-08T17:47:50;17.15;;;5.05;;
9052;SDS011;4561;47.450;7.516;2023-10-08T17:51:12;19.33;;;4.32;;
9052;SDS011;4561;47.450;7.516;2023-10-08T17:54:36;16.65;;;4.07;;
9052;SDS011;4561;47.450;7.516;2023-10-08T17:57:57;13.30;;;4.57;;
9052;SDS011;4561;47.450;7.516;2023-10-08T18:01:21;13.93;;;4.20;;
9052;SDS011;4561;47.450;7.516;2023-10-08T18:04:45;14.83;;;4.93;;
9052;SDS011;4561;47.450;7.516;2023-10-08T18:08:05;14.77;;;4.93;;
9052;SDS011;4561;47.450;7.516;2023-10-08T18:11:26;18.17;;;4.40;;
9052;SDS011;4561;47.450;7.516;2023-10-08T18:14:46;18.20;;;4.47;;
9052;SDS011;4561;47.450;7.516;2023-10-08T18:18:07;17.50;;;4.47;;
9052;SDS011;4561;47.450;7.516;2023-10-08T18:21:33;18.70;;;4.60;;
9052;SDS011;4561;47.450;7.516;2023-10-08T18:24:57;15.82;;;4.70;;
9052;SDS011;4561;47.450;7.516;2023-10-08T18:28:18;17.20;;;4.23;;
9052;SDS011;4561;47.450;7.516;2023-10-08T18:31:40;15.77;;;3.67;;
9052;SDS011;4561;47.450;7.516;2023-10-08T18:35:04;17.37;;;3.93;;
9052;SDS011;4561;47.450;7.516;2023-10-08T18:38:32;17.43;;;4.10;;
9052;SDS011;4561;47.450;7.516;2023-10-08T18:41:54;21.70;;;4.37;;
9052;SDS011;4561;47.450;7.516;2023-10-08T18:45:15;17.37;;;4.03;;
9052;SDS011;4561;47.450;7.516;2023-10-08T18:48:38;21.80;;;5.13;;
9052;SDS011;4561;47.450;7.516;2023-10-08T18:51:58;17.07;;;4.40;;
9052;SDS011;4561;47.450;7.516;2023-10-08T18:55:21;13.07;;;4.07;;
9052;SDS011;4561;47.450;7.516;2023-10-08T18:58:42;14.97;;;4.27;;
9052;SDS011;4561;47.450;7.516;2023-10-08T19:02:03;16.80;;;4.67;;
9052;SDS011;4561;47.450;7.516;2023-10-08T19:05:24;17.93;;;4.73;;
9052;SDS011;4561;47.450;7.516;2023-10-08T19:08:47;15.27;;;4.40;;
9052;SDS011;4561;47.450;7.516;2023-10-08T19:12:10;13.40;;;4.17;;
9052;SDS011;4561;47.450;7.516;2023-10-08T19:15:32;15.97;;;4.10;;
9052;SDS011;4561;47.450;7.516;2023-10-08T19:18:54;14.43;;;4.43;;
9052;SDS011;4561;47.450;7.516;2023-10-08T19:22:15;23.67;;;5.17;;
9052;SDS011;4561;47.450;7.516;2023-10-08T19:25:36;16.60;;;4.33;;
9052;SDS011;4561;47.450;7.516;2023-10-08T19:28:59;18.37;;;4.87;;
9052;SDS011;4561;47.450;7.516;2023-10-08T19:32:20;13.53;;;4.23;;
9052;SDS011;4561;47.450;7.516;2023-10-08T19:35:41;17.50;;;4.87;;
9052;SDS011;4561;47.450;7.516;2023-10-08T19:39:04;11.20;;;4.53;;
9052;SDS011;4561;47.450;7.516;2023-10-08T19:42:29;14.77;;;5.13;;
9052;SDS011;4561;47.450;7.516;2023-10-08T19:45:50;19.03;;;4.83;;
9052;SDS011;4561;47.450;7.516;2023-10-08T19:49:14;17.83;;;4.70;;
9052;SDS011;4561;47.450;7.516;2023-10-08T19:52:37;13.17;;;3.73;;
9052;SDS011;4561;47.450;7.516;2023-10-08T19:55:59;17.10;;;4.47;;
9052;SDS011;4561;47.450;7.516;2023-10-08T19:59:20;17.40;;;4.10;;
9052;SDS011;4561;47.450;7.516;2023-10-08T20:02:41;16.33;;;5.50;;
9052;SDS011;4561;47.450;7.516;2023-10-08T20:06:02;12.20;;;4.60;;
9052;SDS011;4561;47.450;7.516;2023-10-08T20:09:22;12.33;;;4.60;;
9052;SDS011;4561;47.450;7.516;2023-10-08T20:12:47;19.40;;;5.00;;
9052;SDS011;4561;47.450;7.516;2023-10-08T20:16:09;15.23;;;4.47;;
9052;SDS011;4561;47.450;7.516;2023-10-08T20:19:30;17.47;;;4.53;;
9052;SDS011;4561;47.450;7.516;2023-10-08T20:22:51;12.57;;;4.23;;
9052;SDS011;4561;47.450;7.516;2023-10-08T20:26:17;16.93;;;5.00;;
9052;SDS011;4561;47.450;7.516;2023-10-08T20:29:43;11.90;;;3.77;;
9052;SDS011;4561;47.450;7.516;2023-10-08T20:33:06;14.80;;;4.20;;
9052;SDS011;4561;47.450;7.516;2023-10-08T20:36:35;20.80;;;5.00;;
9052;SDS011;4561;47.450;7.516;2023-10-08T20:39:57;14.20;;;3.83;;
9052;SDS011;4561;47.450;7.516;2023-10-08T20:43:20;20.40;;;4.40;;
9052;SDS011;4561;47.450;7.516;2023-10-08T20:46:41;16.27;;;4.40;;
9052;SDS011;4561;47.450;7.516;2023-10-08T20:50:05;14.83;;;4.53;;
9052;SDS011;4561;47.450;7.516;2023-10-08T20:53:32;12.53;;;4.67;;
9052;SDS011;4561;47.450;7.516;2023-10-08T20:56:54;14.87;;;5.07;;
9052;SDS011;4561;47.450;7.516;2023-10-08T21:00:19;13.40;;;4.60;;